Time;durP1;ratioP1;P1;durP2;ratioP2;P2;SDS_P1;SDS_P2;PMS_P1;PMS_P2;Temp;Humidity;BMP_temperature;BMP_pressure;BME280_temperature;BME280_humidity;BME280_pressure;Samples;Min_cycle;Max_cycle;Signal;HPM_P1;HPM_P2
2022/01/29 00:01:36;;;;;;;29.80;11.25;;;;;;;2.98;95.76;100835.66;5012133;28;20018;-59
2022/01/29 00:04:01;;;;;;;29.15;11.38;;;;;;;2.94;95.91;100829.00;5012126;28;20018;-59
2022/01/29 00:06:27;;;;;;;13.15;6.05;;;;;;;2.89;95.54;100821.53;5012406;28;20053;-60
2022/01/29 00:08:55;;;;;;;28.85;9.57;;;;;;;2.92;95.67;100815.09;5012448;28;20069;-60
2022/01/29 00:11:26;;;;;;;25.83;10.80;;;;;;;2.91;95.83;100808.97;5012149;28;20459;-59
2022/01/29 00:13:52;;;;;;;32.45;10.70;;;;;;;2.90;95.44;100807.31;5012140;28;20058;-59
2022/01/29 00:16:17;;;;;;;28.58;11.23;;;;;;;2.96;95.46;100809.31;5012295;28;20044;-60
2022/01/29 00:18:42;;;;;;;27.95;10.50;;;;;;;2.91;95.92;100808.97;5012409;28;20045;-59
2022/01/29 00:21:08;;;;;;;33.53;10.10;;;;;;;2.89;95.27;100820.69;5012353;28;20026;-59
2022/01/29 00:23:33;;;;;;;31.48;10.65;;;;;;;2.97;96.00;100818.09;5012160;28;20033;-60
2022/01/29 00:26:00;;;;;;;25.15;9.93;;;;;;;2.98;95.35;100823.25;5012174;28;20042;-59
2022/01/29 00:28:27;;;;;;;20.17;7.05;;;;;;;2.96;94.81;100819.09;5011873;28;20452;-59
2022/01/29 00:30:52;;;;;;;30.90;10.00;;;;;;;2.97;95.21;100820.75;5012121;28;20033;-59
2022/01/29 00:33:17;;;;;;;26.10;10.32;;;;;;;2.95;95.38;100814.78;5012102;28;20361;-59
2022/01/29 00:35:43;;;;;;;29.15;11.20;;;;;;;2.91;95.11;100813.44;5012409;28;20117;-60
2022/01/29 00:38:08;;;;;;;25.20;10.48;;;;;;;2.92;95.18;100815.94;5011910;28;20022;-59
2022/01/29 00:40:36;;;;;;;25.23;10.43;;;;;;;2.89;95.37;100804.81;5010584;28;20037;-59
2022/01/29 00:43:02;;;;;;;31.17;10.30;;;;;;;2.90;95.45;100807.31;5011460;28;20042;-59
2022/01/29 00:45:27;;;;;;;23.15;10.73;;;;;;;2.83;95.68;100808.91;5011867;28;20048;-62
2022/01/29 00:47:53;;;;;;;29.42;12.25;;;;;;;2.84;96.04;100815.03;5011444;28;20041;-60
2022/01/29 00:50:18;;;;;;;28.52;11.15;;;;;;;2.85;95.89;100801.66;5011571;28;20026;-59
2022/01/29 00:52:44;;;;;;;24.15;10.75;;;;;;;2.87;95.79;100793.53;5011609;28;20037;-59
2022/01/29 00:55:10;;;;;;;26.05;9.85;;;;;;;2.86;96.35;100783.94;5012030;28;20034;-59
2022/01/29 00:57:38;;;;;;;33.40;11.68;;;;;;;2.83;95.93;100790.38;5010567;28;20087;-59
2022/01/29 01:00:05;;;;;;;28.45;11.73;;;;;;;2.83;96.20;100773.66;5011534;28;20359;-62
2022/01/29 01:02:31;;;;;;;30.25;12.00;;;;;;;2.83;96.59;100784.25;5011640;28;20156;-60
2022/01/29 01:04:56;;;;;;;30.83;10.23;;;;;;;2.79;96.73;100776.59;5011594;28;20034;-59
2022/01/29 01:07:22;;;;;;;29.45;12.02;;;;;;;2.83;96.53;100773.66;5011969;28;20114;-60
2022/01/29 01:09:47;;;;;;;28.90;11.75;;;;;;;2.78;97.06;100769.63;5011491;28;20449;-60
2022/01/29 01:12:13;;;;;;;29.92;11.02;;;;;;;2.76;97.48;100763.66;5010433;28;20038;-60
2022/01/29 01:14:38;;;;;;;33.65;12.02;;;;;;;2.74;97.41;100755.03;5010190;28;20037;-59
2022/01/29 01:17:04;;;;;;;32.08;12.73;;;;;;;2.70;97.65;100756.34;5011746;28;20080;-59
2022/01/29 01:19:30;;;;;;;26.85;11.02;;;;;;;2.70;97.68;100748.41;5011673;28;20082;-59
2022/01/29 01:21:55;;;;;;;30.70;11.77;;;;;;;2.69;97.67;100741.44;5011497;28;20383;-60
2022/01/29 01:24:21;;;;;;;30.58;11.57;;;;;;;2.75;97.87;100746.13;5011410;28;20022;-59
2022/01/29 01:26:49;;;;;;;31.58;11.90;;;;;;;2.75;97.55;100751.41;5011364;28;20021;-59
2022/01/29 01:29:15;;;;;;;32.58;12.57;;;;;;;2.73;98.11;100752.56;5011827;28;20030;-59
2022/01/29 01:31:43;;;;;;;35.47;11.77;;;;;;;2.66;98.30;100754.97;5009985;28;20107;-60
2022/01/29 01:34:08;;;;;;;34.88;12.40;;;;;;;2.74;98.98;100744.44;5010706;28;20084;-60
2022/01/29 01:36:42;;;;;;;28.58;11.98;;;;;;;2.67;97.95;100754.00;5011154;28;20026;-59
2022/01/29 01:39:10;;;;;;;36.67;13.77;;;;;;;2.67;98.32;100758.44;5010704;28;20022;-59
2022/01/29 01:41:41;;;;;;;36.42;13.10;;;;;;;2.69;98.50;100757.31;5011067;28;20038;-59
2022/01/29 01:44:10;;;;;;;31.52;12.88;;;;;;;2.71;98.90;100760.66;5011443;28;20026;-59
2022/01/29 01:46:36;;;;;;;37.80;12.93;;;;;;;2.72;98.79;100754.38;5011516;28;20026;-59
2022/01/29 01:49:01;;;;;;;31.20;13.23;;;;;;;2.65;98.28;100750.69;5011511;28;20092;-59
2022/01/29 01:51:27;;;;;;;37.03;12.75;;;;;;;2.67;98.81;100750.50;5012562;28;20026;-59
2022/01/29 01:53:52;;;;;;;27.90;11.13;;;;;;;2.63;98.93;100747.34;5014724;28;20025;-59
2022/01/29 01:56:18;;;;;;;33.47;11.52;;;;;;;2.73;98.65;100742.78;5013418;28;20448;-60
2022/01/29 01:58:43;;;;;;;32.40;11.77;;;;;;;2.68;98.90;100750.38;5014838;28;20018;-60
2022/01/29 02:01:08;;;;;;;32.35;12.95;;;;;;;2.66;99.52;100752.34;5014411;28;20022;-59
2022/01/29 02:03:34;;;;;;;38.28;14.57;;;;;;;2.50;100.00;100739.81;5014371;28;20029;-59
2022/01/29 02:05:59;;;;;;;34.70;11.73;;;;;;;2.54;100.00;100732.38;5013316;28;20033;-60
2022/01/29 02:08:25;;;;;;;33.00;13.07;;;;;;;2.58;100.00;100731.09;5013402;28;20030;-59
2022/01/29 02:10:51;;;;;;;30.30;11.82;;;;;;;2.61;100.00;100727.31;5014241;28;20030;-59
2022/01/29 02:13:16;;;;;;;39.00;13.50;;;;;;;2.55;100.00;100729.59;5014207;28;20022;-59
2022/01/29 02:15:42;;;;;;;30.58;11.63;;;;;;;2.51;100.00;100727.41;5014476;28;20429;-59
2022/01/29 02:18:14;;;;;;;31.10;11.85;;;;;;;2.53;100.00;100720.97;5014323;28;20030;-59
2022/01/29 02:20:40;;;;;;;30.20;12.57;;;;;;;2.52;100.00;100718.47;5013010;28;20022;-59
2022/01/29 02:23:05;;;;;;;35.72;12.50;;;;;;;2.52;100.00;100699.94;5015003;28;20344;-60
2022/01/29 02:25:41;;;;;;;32.65;11.82;;;;;;;2.58;100.00;100701.97;5014339;28;20349;-60
2022/01/29 02:28:14;;;;;;;31.25;11.98;;;;;;;2.57;100.00;100693.22;5014351;28;20092;-60
2022/01/29 02:30:41;;;;;;;29.52;10.90;;;;;;;2.54;100.00;100679.44;5013923;28;20511;-59
2022/01/29 02:33:10;;;;;;;33.90;11.25;;;;;;;2.50;100.00;100672.81;5013752;28;20026;-59
2022/01/29 02:35:40;;;;;;;25.70;10.82;;;;;;;2.50;100.00;100664.88;5014087;28;20025;-59
2022/01/29 02:38:06;;;;;;;29.42;12.15;;;;;;;2.48;100.00;100658.91;5014209;28;20030;-59
2022/01/29 02:40:36;;;;;;;27.95;12.15;;;;;;;2.45;100.00;100653.94;5014103;28;20026;-60
2022/01/29 02:43:39;;;;;;;32.22;10.15;;;;;;;2.52;100.00;100665.53;5012530;28;20115;-59
2022/01/29 02:46:53;;;;;;;22.52;9.40;;;;;;;2.49;99.48;100656.09;4999693;28;20057;-59
2022/01/29 02:48:56;;;;;;;29.05;10.88;;;;;;;2.48;99.60;100657.09;5008876;28;20069;-59
2022/01/29 02:51:21;;;;;;;25.35;9.80;;;;;;;2.58;99.20;100646.41;5013995;28;20021;-59
2022/01/29 02:53:47;;;;;;;33.13;11.43;;;;;;;2.53;99.20;100641.56;5012262;28;20037;-59
2022/01/29 02:56:13;;;;;;;25.63;9.93;;;;;;;2.56;99.33;100630.66;5013775;28;20367;-59
2022/01/29 02:58:38;;;;;;;32.22;9.15;;;;;;;2.55;98.98;100615.78;5013838;28;20393;-59
2022/01/29 03:01:04;;;;;;;24.25;9.73;;;;;;;2.46;99.13;100622.00;5012754;28;20029;-59
2022/01/29 03:03:29;;;;;;;32.33;11.05;;;;;;;2.46;99.08;100616.69;5013321;28;20449;-59
2022/01/29 03:05:55;;;;;;;27.90;10.88;;;;;;;2.47;99.53;100614.88;5013260;28;20033;-59
2022/01/29 03:08:20;;;;;;;25.38;9.77;;;;;;;2.51;99.27;100611.78;5012046;28;20033;-62
2022/01/29 03:10:47;;;;;;;23.15;9.13;;;;;;;2.63;98.90;100620.28;5013336;28;20030;-59
2022/01/29 03:13:12;;;;;;;24.70;10.50;;;;;;;2.55;98.78;100607.84;5013539;28;20026;-59
2022/01/29 03:15:38;;;;;;;18.25;8.45;;;;;;;2.53;98.52;100582.50;5013130;28;20049;-59
2022/01/29 03:18:03;;;;;;;28.27;10.35;;;;;;;2.52;98.65;100581.69;5012967;28;20026;-59
2022/01/29 03:20:30;;;;;;;23.98;9.70;;;;;;;2.56;98.19;100603.38;5013324;28;20089;-59
2022/01/29 03:22:56;;;;;;;23.65;10.07;;;;;;;2.59;98.21;100592.44;5013769;28;20021;-59
2022/01/29 03:25:21;;;;;;;27.63;9.73;;;;;;;2.56;98.11;100587.47;5013140;28;20056;-60
2022/01/29 03:27:46;;;;;;;22.63;9.20;;;;;;;2.60;98.19;100578.25;5012920;28;20032;-59
2022/01/29 03:30:12;;;;;;;14.27;6.63;;;;;;;2.61;97.74;100579.91;4995542;28;20029;-59
2022/01/29 03:32:37;;;;;;;27.10;10.00;;;;;;;2.54;97.88;100568.28;5012649;28;20113;-59
2022/01/29 03:35:03;;;;;;;26.83;10.98;;;;;;;2.58;97.80;100564.34;5012744;28;20026;-59
2022/01/29 03:37:29;;;;;;;26.88;8.93;;;;;;;2.62;97.50;100580.72;5013108;28;20026;-59
2022/01/29 03:39:59;;;;;;;23.67;10.10;;;;;;;2.67;97.74;100584.59;5013099;28;20026;-60
2022/01/29 03:42:25;;;;;;;24.80;9.80;;;;;;;2.62;97.73;100576.28;5012745;28;20155;-59
2022/01/29 03:44:50;;;;;;;26.52;10.50;;;;;;;2.64;97.83;100549.63;5012901;28;20032;-60
2022/01/29 03:47:16;;;;;;;26.85;10.27;;;;;;;2.65;97.35;100565.38;5011140;28;20026;-60
2022/01/29 03:49:43;;;;;;;20.98;8.43;;;;;;;2.72;97.16;100563.75;5012757;28;20026;-59
2022/01/29 03:52:08;;;;;;;28.92;10.95;;;;;;;2.73;96.62;100564.56;5012829;28;20022;-59
2022/01/29 03:54:34;;;;;;;22.73;8.82;;;;;;;2.83;96.66;100561.81;5012735;28;20044;-60
2022/01/29 03:56:59;;;;;;;23.55;9.70;;;;;;;2.77;96.51;100571.19;5012353;28;20030;-59
2022/01/29 03:59:24;;;;;;;23.73;9.52;;;;;;;2.69;96.66;100561.41;5012737;28;20033;-59
2022/01/29 04:01:50;;;;;;;25.08;10.52;;;;;;;2.67;97.40;100551.97;5012376;28;20036;-60
2022/01/29 04:04:15;;;;;;;29.27;11.10;;;;;;;2.68;97.59;100549.16;5011178;28;20033;-60
2022/01/29 04:06:41;;;;;;;36.85;10.50;;;;;;;2.71;97.52;100538.25;5012402;28;20437;-59
2022/01/29 04:09:10;;;;;;;23.45;10.27;;;;;;;2.69;97.79;100550.00;5012204;28;20026;-59
2022/01/29 04:11:37;;;;;;;19.10;7.97;;;;;;;2.65;98.94;100549.50;5011957;28;20489;-60
2022/01/29 04:14:03;;;;;;;26.33;10.25;;;;;;;2.69;97.92;100542.88;5011681;28;20040;-59
2022/01/29 04:16:28;;;;;;;27.85;11.60;;;;;;;2.63;98.85;100548.81;5012320;28;20049;-59
2022/01/29 04:18:54;;;;;;;26.77;10.43;;;;;;;2.70;99.25;100535.78;5010754;28;20543;-59
2022/01/29 04:21:19;;;;;;;25.38;10.10;;;;;;;2.69;98.87;100540.22;5011996;28;20026;-59
2022/01/29 04:23:45;;;;;;;30.55;11.45;;;;;;;2.64;99.13;100531.94;5012319;28;20022;-59
2022/01/29 04:26:10;;;;;;;29.25;11.68;;;;;;;2.61;99.69;100534.06;5012260;28;20030;-59
2022/01/29 04:28:40;;;;;;;30.70;11.82;;;;;;;2.61;100.00;100529.59;5011953;28;20022;-60
2022/01/29 04:31:15;;;;;;;32.72;13.15;;;;;;;2.53;100.00;100540.16;5010558;28;20470;-59
2022/01/29 04:33:40;;;;;;;31.83;11.70;;;;;;;2.53;100.00;100540.16;5011989;28;20057;-59
2022/01/29 04:36:06;;;;;;;32.05;12.30;;;;;;;2.48;100.00;100545.09;5011856;28;20081;-59
2022/01/29 04:38:32;;;;;;;32.80;12.70;;;;;;;2.45;100.00;100533.00;5012112;28;20034;-59
2022/01/29 04:41:00;;;;;;;36.63;13.55;;;;;;;2.41;100.00;100533.47;5011635;28;20460;-59
2022/01/29 04:43:26;;;;;;;41.20;14.20;;;;;;;2.42;100.00;100533.34;5011693;28;20459;-59
2022/01/29 04:45:51;;;;;;;29.90;10.82;;;;;;;2.41;100.00;100529.00;5011640;28;20030;-60
2022/01/29 04:48:17;;;;;;;34.50;13.90;;;;;;;2.40;100.00;100526.50;5012166;28;20080;-59
2022/01/29 04:50:42;;;;;;;36.78;11.32;;;;;;;2.42;100.00;100513.97;5010725;28;20037;-59
2022/01/29 04:53:08;;;;;;;29.13;11.05;;;;;;;2.40;100.00;100514.13;5011925;28;20032;-59
2022/01/29 04:55:33;;;;;;;20.73;9.27;;;;;;;2.42;100.00;100512.16;5011662;28;20026;-59
2022/01/29 04:57:59;;;;;;;37.40;12.38;;;;;;;2.45;100.00;100511.84;5011574;28;20030;-59
2022/01/29 05:00:24;;;;;;;26.05;9.48;;;;;;;2.46;100.00;100512.66;5011900;28;20029;-59
2022/01/29 05:02:51;;;;;;;29.48;10.93;;;;;;;2.46;100.00;100512.66;5011714;28;20026;-60
2022/01/29 05:05:17;;;;;;;35.63;12.13;;;;;;;2.49;100.00;100512.34;5012481;28;20037;-60
2022/01/29 05:07:42;;;;;;;28.33;10.70;;;;;;;2.47;100.00;100509.03;5011501;28;20065;-59
2022/01/29 05:10:08;;;;;;;34.30;13.13;;;;;;;2.44;100.00;100501.41;5011805;28;20096;-59
2022/01/29 05:12:46;;;;;;;27.40;10.90;;;;;;;2.53;100.00;100509.22;5011550;28;20037;-59
2022/01/29 05:15:28;;;;;;;34.05;11.95;;;;;;;2.44;100.00;100502.22;5011741;28;20056;-59
2022/01/29 05:28:49;;;;;;;28.55;9.45;;;;;;;2.44;100.00;100496.94;5015650;28;20041;-59
2022/01/29 05:31:15;;;;;;;28.42;10.52;;;;;;;2.42;100.00;100498.09;5015443;28;20026;-59
2022/01/29 05:33:40;;;;;;;26.15;10.48;;;;;;;2.45;100.00;100500.44;5015470;28;20057;-59
2022/01/29 05:36:06;;;;;;;29.73;11.60;;;;;;;2.45;100.00;100500.44;5014077;28;20439;-58
2022/01/29 05:38:31;;;;;;;28.17;10.70;;;;;;;2.44;100.00;100507.53;5014993;28;20037;-58
2022/01/29 05:40:56;;;;;;;28.42;11.60;;;;;;;2.48;100.00;100505.41;5014947;28;20433;-59
2022/01/29 05:43:22;;;;;;;27.00;10.52;;;;;;;2.44;100.00;100494.28;5014669;28;20046;-59
2022/01/29 05:45:48;;;;;;;20.50;8.27;;;;;;;2.48;100.00;100490.34;5013588;28;20109;-59
2022/01/29 05:48:13;;;;;;;24.92;9.55;;;;;;;2.48;100.00;100494.81;5014784;28;20049;-59
2022/01/29 05:50:38;;;;;;;25.10;9.60;;;;;;;2.53;100.00;100492.53;5015195;28;20030;-59
2022/01/29 05:53:04;;;;;;;23.88;10.77;;;;;;;2.52;100.00;100490.84;5015019;28;20041;-59
2022/01/29 05:55:30;;;;;;;24.65;9.85;;;;;;;2.56;100.00;100492.19;5014721;28;20454;-59
2022/01/29 05:57:55;;;;;;;25.42;10.73;;;;;;;2.56;100.00;100492.19;5015195;28;20042;-60
2022/01/29 06:00:21;;;;;;;22.77;9.77;;;;;;;2.60;100.00;100490.91;5014819;28;20080;-59
2022/01/29 06:02:46;;;;;;;29.67;9.70;;;;;;;2.57;100.00;100480.59;5014324;28;20397;-59
2022/01/29 06:05:12;;;;;;;24.73;9.98;;;;;;;2.62;100.00;100470.41;5014651;28;20494;-59
2022/01/29 06:07:37;;;;;;;24.83;9.40;;;;;;;2.68;100.00;100480.34;5014383;28;20088;-59
2022/01/29 06:10:03;;;;;;;25.42;10.30;;;;;;;2.70;99.77;100473.06;5014657;28;20036;-59
2022/01/29 06:12:28;;;;;;;16.50;6.65;;;;;;;2.67;99.57;100470.75;5014705;28;20448;-58
2022/01/29 06:14:53;;;;;;;23.30;9.30;;;;;;;2.68;99.68;100469.75;5014451;28;20034;-59
2022/01/29 06:17:19;;;;;;;18.35;8.82;;;;;;;2.71;99.82;100464.13;5014145;28;20030;-58
2022/01/29 06:19:44;;;;;;;22.83;9.23;;;;;;;2.67;99.82;100470.75;5014546;28;20026;-58
2022/01/29 06:22:13;;;;;;;25.42;9.20;;;;;;;2.63;100.00;100472.03;5014351;28;20338;-60
2022/01/29 06:24:38;;;;;;;21.08;9.00;;;;;;;2.65;100.00;100459.47;5013976;28;20022;-58
2022/01/29 06:27:04;;;;;;;21.30;8.20;;;;;;;2.62;100.00;100459.81;5012684;28;20104;-58
2022/01/29 06:29:29;;;;;;;21.33;8.90;;;;;;;2.67;100.00;100457.50;5014040;28;20165;-58
2022/01/29 06:31:55;;;;;;;18.27;7.95;;;;;;;2.69;100.00;100446.75;4996303;28;20030;-58
2022/01/29 06:34:20;;;;;;;21.40;9.50;;;;;;;2.69;100.00;100454.69;5013326;28;20077;-60
2022/01/29 06:36:45;;;;;;;19.52;8.48;;;;;;;2.63;100.00;100460.63;5013669;28;20026;-59
2022/01/29 06:39:11;;;;;;;18.02;8.55;;;;;;;2.62;100.00;100448.38;5013905;28;20021;-60
2022/01/29 06:41:36;;;;;;;18.67;8.68;;;;;;;2.62;100.00;100470.41;5013662;28;20092;-60
2022/01/29 06:44:02;;;;;;;20.48;8.98;;;;;;;2.58;100.00;100463.75;5013797;28;20058;-59
2022/01/29 06:46:27;;;;;;;27.20;11.85;;;;;;;2.54;100.00;100451.81;5012230;28;20099;-60
2022/01/29 06:48:53;;;;;;;24.10;10.35;;;;;;;2.58;100.00;100463.75;5013880;28;20135;-60
2022/01/29 06:51:18;;;;;;;22.25;9.55;;;;;;;2.62;100.00;100464.25;5013783;28;20034;-60
2022/01/29 06:53:43;;;;;;;21.88;9.30;;;;;;;2.56;100.00;100460.44;5013641;28;20030;-60
2022/01/29 06:56:09;;;;;;;20.83;8.98;;;;;;;2.57;100.00;100467.38;5012700;28;20041;-60
2022/01/29 06:58:35;;;;;;;30.63;10.43;;;;;;;2.56;100.00;100460.44;5012420;28;20018;-60
2022/01/29 07:01:01;;;;;;;25.50;10.20;;;;;;;2.59;100.00;100463.56;5012584;28;20156;-60
2022/01/29 07:03:26;;;;;;;21.75;10.07;;;;;;;2.58;100.00;100458.47;5012745;28;20026;-59
2022/01/29 07:05:52;;;;;;;29.00;10.82;;;;;;;2.52;100.00;100464.38;5013830;28;20392;-59
2022/01/29 07:08:17;;;;;;;23.40;9.70;;;;;;;2.66;100.00;100460.31;5013732;28;20030;-60
2022/01/29 07:10:44;;;;;;;20.45;9.65;;;;;;;2.63;100.00;100463.28;5013425;28;20038;-59
2022/01/29 07:13:10;;;;;;;21.33;9.43;;;;;;;2.58;100.00;100466.41;5013673;28;20026;-60
2022/01/29 07:15:35;;;;;;;19.20;8.52;;;;;;;2.64;100.00;100478.16;5013334;28;20488;-60
2022/01/29 07:18:01;;;;;;;16.98;7.25;;;;;;;2.60;100.00;100472.38;5013483;28;20026;-60
2022/01/29 07:20:26;;;;;;;35.00;17.90;;;;;;;2.58;100.00;100487.56;5013115;28;20026;-60
2022/01/29 07:22:51;;;;;;;22.52;9.07;;;;;;;2.50;100.00;100476.97;5012979;28;20030;-59
2022/01/29 07:25:17;;;;;;;31.33;14.02;;;;;;;2.56;100.00;100489.56;5012743;28;20028;-58
2022/01/29 07:27:42;;;;;;;25.00;12.10;;;;;;;2.59;100.00;100494.50;5012857;28;20026;-60
2022/01/29 07:30:08;;;;;;;21.48;10.40;;;;;;;2.57;100.00;100485.91;5013197;28;20014;-59
2022/01/29 07:32:34;;;;;;;30.65;14.20;;;;;;;2.57;100.00;100486.75;5012782;28;20439;-60
2022/01/29 07:34:59;;;;;;;15.63;7.40;;;;;;;2.57;100.00;100481.47;5012835;28;20018;-60
2022/01/29 07:37:25;;;;;;;18.70;7.70;;;;;;;2.58;100.00;100479.63;5012618;28;20030;-60
2022/01/29 07:39:50;;;;;;;21.50;10.48;;;;;;;2.60;100.00;100472.38;5012809;28;20030;-58
2022/01/29 07:42:15;;;;;;;18.00;8.65;;;;;;;2.55;100.00;100469.38;5012380;28;20054;-59
2022/01/29 07:44:41;;;;;;;17.33;7.18;;;;;;;2.52;100.00;100472.31;5012514;28;20081;-58
2022/01/29 07:47:07;;;;;;;17.70;8.30;;;;;;;2.45;100.00;100468.69;5012645;28;20068;-59
2022/01/29 07:49:32;;;;;;;20.48;8.80;;;;;;;2.42;100.00;100475.13;5012484;28;20030;-59
2022/01/29 07:51:57;;;;;;;18.30;8.00;;;;;;;2.51;100.00;100460.09;5013026;28;20030;-59
2022/01/29 07:54:23;;;;;;;27.20;11.82;;;;;;;2.49;100.00;100462.06;5012663;28;20037;-59
2022/01/29 07:56:48;;;;;;;18.48;7.55;;;;;;;2.47;100.00;100456.09;5012377;28;20037;-58
2022/01/29 07:59:14;;;;;;;17.02;7.95;;;;;;;2.53;100.00;100458.94;5012792;28;20026;-58
2022/01/29 08:01:39;;;;;;;18.95;9.13;;;;;;;2.48;100.00;100452.47;5012656;28;20518;-58
2022/01/29 08:04:04;;;;;;;24.27;8.32;;;;;;;2.56;100.00;100455.13;5011250;28;20029;-58
2022/01/29 08:06:30;;;;;;;46.58;21.52;;;;;;;2.60;100.00;100459.13;5012213;28;20025;-58
2022/01/29 08:08:56;;;;;;;14.30;7.38;;;;;;;2.60;100.00;100448.56;5012557;28;20034;-60
2022/01/29 08:11:22;;;;;;;14.55;6.90;;;;;;;2.66;100.00;100455.00;5010899;28;20113;-58
2022/01/29 08:13:47;;;;;;;17.85;8.35;;;;;;;2.68;100.00;100464.44;5011182;28;20041;-58
2022/01/29 08:16:14;;;;;;;13.10;5.65;;;;;;;2.64;100.00;100455.16;5010900;28;20030;-60
2022/01/29 08:18:41;;;;;;;14.38;7.47;;;;;;;2.66;100.00;100463.78;5010896;28;20068;-61
2022/01/29 08:21:07;;;;;;;15.00;7.35;;;;;;;2.65;100.00;100453.38;5012514;28;20026;-60
2022/01/29 08:23:32;;;;;;;12.43;6.28;;;;;;;2.68;100.00;100448.56;5012158;28;20104;-60
2022/01/29 08:25:58;;;;;;;15.80;6.18;;;;;;;2.71;100.00;100453.53;5010522;28;20036;-59
2022/01/29 08:28:23;;;;;;;11.35;5.97;;;;;;;2.76;100.00;100461.81;5027094;28;20034;-60
2022/01/29 08:30:49;;;;;;;13.35;6.63;;;;;;;2.78;100.00;100454.53;5010897;28;20037;-60
2022/01/29 08:33:18;;;;;;;12.65;5.80;;;;;;;2.81;100.00;100463.97;5011945;28;20033;-60
2022/01/29 08:35:46;;;;;;;8.82;4.78;;;;;;;2.80;100.00;100457.88;5011641;28;20026;-60
2022/01/29 08:38:14;;;;;;;14.18;7.20;;;;;;;2.84;100.00;100468.94;5012124;28;20025;-59
2022/01/29 08:40:39;;;;;;;13.48;5.97;;;;;;;2.83;100.00;100466.47;5010765;28;20044;-60
2022/01/29 08:43:05;;;;;;;12.40;5.95;;;;;;;2.87;100.00;100465.16;5011579;28;20125;-60
2022/01/29 08:45:30;;;;;;;10.35;5.15;;;;;;;2.91;100.00;100463.84;5011664;28;20034;-59
2022/01/29 08:47:55;;;;;;;8.20;4.43;;;;;;;2.97;100.00;100453.44;5011823;28;20033;-59
2022/01/29 08:50:21;;;;;;;10.43;5.72;;;;;;;3.12;100.00;100448.31;5011619;28;20099;-59
2022/01/29 08:52:46;;;;;;;10.70;5.90;;;;;;;3.18;100.00;100445.00;5011687;28;20025;-59
2022/01/29 08:55:12;;;;;;;11.93;5.63;;;;;;;3.20;100.00;100443.03;5012029;28;20460;-59
2022/01/29 08:57:38;;;;;;;9.93;5.13;;;;;;;3.18;100.00;100446.84;5012424;28;20045;-59
2022/01/29 09:00:05;;;;;;;7.82;4.32;;;;;;;3.17;100.00;100446.00;5012677;28;20037;-59
2022/01/29 09:02:30;;;;;;;14.57;9.23;;;;;;;3.21;100.00;100446.50;5016315;28;20297;-59
2022/01/29 09:04:57;;;;;;;6.50;3.45;;;;;;;3.19;100.00;100446.66;5015810;28;20026;-59
2022/01/29 09:07:23;;;;;;;7.60;3.60;;;;;;;3.29;99.77;100441.19;5016062;28;20030;-59
2022/01/29 09:09:48;;;;;;;5.57;3.10;;;;;;;3.26;99.35;100440.72;5015963;28;20112;-59
2022/01/29 09:12:14;;;;;;;7.65;3.55;;;;;;;3.32;99.53;100434.72;5016032;28;20476;-59
2022/01/29 09:14:39;;;;;;;6.95;3.53;;;;;;;3.33;99.11;100436.41;5015829;28;20034;-59
2022/01/29 09:17:05;;;;;;;6.65;3.70;;;;;;;3.35;98.63;100421.19;5015883;28;20030;-59
2022/01/29 09:19:30;;;;;;;6.50;3.42;;;;;;;3.37;99.27;100421.81;5015623;28;20398;-59
2022/01/29 09:21:56;;;;;;;9.38;4.57;;;;;;;3.39;99.75;100430.44;5015834;28;20180;-59
2022/01/29 09:24:21;;;;;;;5.55;3.10;;;;;;;3.38;99.13;100424.31;5015277;28;20464;-59
2022/01/29 09:26:47;;;;;;;5.95;3.20;;;;;;;3.39;99.18;100425.13;5015107;28;20026;-59
2022/01/29 09:29:12;;;;;;;6.75;3.58;;;;;;;3.42;99.08;100419.50;5015218;28;20583;-59
2022/01/29 09:31:38;;;;;;;4.68;2.60;;;;;;;3.43;98.81;100411.38;5013898;28;20030;-60
2022/01/29 09:34:03;;;;;;;5.40;3.30;;;;;;;3.45;98.63;100421.84;5015443;28;20025;-60
2022/01/29 09:36:29;;;;;;;6.00;3.70;;;;;;;3.44;98.76;100418.34;5015057;28;20022;-60
2022/01/29 09:38:54;;;;;;;11.02;7.50;;;;;;;3.53;98.19;100405.09;5015002;28;20129;-59
2022/01/29 09:41:23;;;;;;;6.32;3.80;;;;;;;3.59;97.83;100410.53;5014990;28;20025;-59
2022/01/29 09:43:48;;;;;;;5.50;3.08;;;;;;;3.62;97.70;100402.25;5014994;28;20053;-60
2022/01/29 09:46:16;;;;;;;3.25;2.40;;;;;;;3.78;96.97;100397.91;5013593;28;20045;-60
2022/01/29 09:48:42;;;;;;;5.30;2.70;;;;;;;3.77;96.53;100390.94;5014968;28;20030;-59
2022/01/29 09:51:12;;;;;;;4.57;2.83;;;;;;;3.80;96.75;100395.94;4997661;28;20022;-60
2022/01/29 09:53:37;;;;;;;4.40;2.53;;;;;;;3.94;96.49;100387.25;5013922;28;20018;-60
2022/01/29 09:56:03;;;;;;;3.70;2.20;;;;;;;3.85;96.23;100383.81;5014573;28;20359;-60
2022/01/29 09:58:28;;;;;;;3.63;2.30;;;;;;;3.99;95.90;100382.25;5014577;28;20034;-60
2022/01/29 10:00:54;;;;;;;6.03;2.35;;;;;;;4.02;95.91;100379.28;5014552;28;20107;-64
2022/01/29 10:03:20;;;;;;;4.50;2.70;;;;;;;4.09;95.63;100380.25;5014910;28;20030;-60
2022/01/29 10:05:54;;;;;;;3.75;2.35;;;;;;;4.18;95.59;100367.75;5014413;28;20026;-60
2022/01/29 10:08:20;;;;;;;4.45;2.45;;;;;;;4.27;95.30;100360.59;5014776;28;20022;-60
2022/01/29 10:10:47;;;;;;;4.38;2.70;;;;;;;4.31;95.06;100353.94;5013217;28;20029;-60
2022/01/29 10:13:31;;;;;;;10.75;8.10;;;;;;;4.39;95.26;100353.88;5014495;28;20022;-60
2022/01/29 10:16:23;;;;;;;4.90;3.05;;;;;;;4.44;94.15;100351.56;5013404;28;20026;-60
2022/01/29 10:19:08;;;;;;;6.03;3.58;;;;;;;4.68;93.70;100357.69;5014262;28;20075;-60
2022/01/29 10:21:46;;;;;;;3.50;2.33;;;;;;;4.43;94.52;100359.69;5012979;28;20029;-60
2022/01/29 10:24:14;;;;;;;7.13;4.50;;;;;;;4.46;94.78;100354.81;5014980;28;20353;-59
2022/01/29 10:26:41;;;;;;;8.70;5.47;;;;;;;4.79;93.92;100359.94;5014304;28;20119;-59
2022/01/29 10:29:08;;;;;;;3.80;2.40;;;;;;;4.50;94.39;100356.16;5013015;28;20104;-59
2022/01/29 10:31:40;;;;;;;4.05;2.33;;;;;;;4.48;94.24;100347.53;5014279;28;20030;-60
2022/01/29 10:34:27;;;;;;;23.80;14.90;;;;;;;4.59;94.55;100353.44;5012823;28;20117;-60
2022/01/29 10:37:13;;;;;;;4.03;2.40;;;;;;;4.40;95.17;100349.41;5014448;28;20072;-60
2022/01/29 10:39:39;;;;;;;8.43;5.00;;;;;;;4.57;95.39;100344.81;5013944;28;20423;-60
2022/01/29 10:42:22;;;;;;;4.10;2.50;;;;;;;4.62;94.52;100347.75;5013815;28;20049;-60
2022/01/29 10:44:49;;;;;;;11.45;5.35;;;;;;;4.66;94.70;100341.09;5012833;28;20136;-60
2022/01/29 10:47:14;;;;;;;5.63;3.53;;;;;;;4.72;94.00;100348.38;5013866;28;20424;-59
2022/01/29 10:49:45;;;;;;;6.57;3.55;;;;;;;4.76;94.02;100342.50;5013861;28;20164;-59
2022/01/29 10:52:15;;;;;;;5.65;2.75;;;;;;;4.85;93.70;100345.13;5012552;28;20079;-59
2022/01/29 10:54:42;;;;;;;5.43;3.30;;;;;;;4.96;93.92;100340.19;5012360;28;20437;-60
2022/01/29 10:57:12;;;;;;;6.68;3.88;;;;;;;4.93;93.41;100340.56;5013844;28;20026;-60
2022/01/29 10:59:45;;;;;;;4.43;2.28;;;;;;;4.82;93.74;100330.38;5012602;28;20026;-59
2022/01/29 11:02:11;;;;;;;3.97;2.50;;;;;;;4.89;94.30;100333.97;5013722;28;20090;-59
2022/01/29 11:04:38;;;;;;;4.00;2.40;;;;;;;4.85;93.57;100342.47;5012376;28;20033;-60
2022/01/29 11:07:08;;;;;;;4.72;3.03;;;;;;;4.86;93.49;100334.31;5013331;28;20091;-60
2022/01/29 11:09:33;;;;;;;;;;;;;;;5.01;93.32;100325.56;5014205;28;20064;-60
2022/01/29 11:12:02;;;;;;;4.40;2.88;;;;;;;5.05;93.25;100324.22;5013839;28;19937;-59
2022/01/29 11:14:27;;;;;;;4.28;2.83;;;;;;;5.02;93.43;100313.91;5013458;28;20034;-60
2022/01/29 11:16:53;;;;;;;2.58;1.83;;;;;;;5.14;93.04;100315.13;5011826;28;20045;-60
2022/01/29 11:19:18;;;;;;;3.35;2.28;;;;;;;5.21;92.44;100316.06;5012986;28;20041;-59
2022/01/29 11:21:46;;;;;;;3.05;1.80;;;;;;;5.10;92.66;100316.53;5012927;28;20080;-59
2022/01/29 11:24:12;;;;;;;2.67;1.75;;;;;;;5.13;92.79;100305.53;4994673;28;20022;-60
2022/01/29 11:26:39;;;;;;;4.82;2.88;;;;;;;5.24;92.50;100291.81;5012289;28;20479;-60
2022/01/29 11:29:37;;;;;;;2.83;1.90;;;;;;;5.12;92.78;100283.44;5013334;28;20022;-60